Time;durP1;ratioP1;P1;durP2;ratioP2;P2;SDS_P1;SDS_P2;PMS_P1;PMS_P2;Temp;Humidity;BMP_temperature;BMP_pressure;BME280_temperature;BME280_humidity;BME280_pressure;Samples;Min_cycle;Max_cycle;Signal;HPM_P1;HPM_P2
2021/11/13 00:00:21;;;;;;;26.60;12.98;;;2.70;99.90;;;;;;5035992;28;20075;-77
2021/11/13 00:02:48;;;;;;;29.20;14.43;;;2.80;99.90;;;;;;5036397;28;20394;-78
2021/11/13 00:05:14;;;;;;;28.73;14.15;;;2.80;99.90;;;;;;5018359;28;20490;-79
2021/11/13 00:07:40;;;;;;;28.85;14.05;;;2.70;99.90;;;;;;5036223;28;20069;-78
2021/11/13 00:10:08;;;;;;;27.48;13.85;;;2.80;99.90;;;;;;5035455;28;20033;-79
2021/11/13 00:12:34;;;;;;;27.13;14.38;;;2.70;99.90;;;;;;5036524;28;20506;-78
2021/11/13 00:15:01;;;;;;;30.05;14.65;;;2.70;99.90;;;;;;5036212;28;20033;-81
2021/11/13 00:17:26;;;;;;;28.08;14.45;;;2.60;99.90;;;;;;5043294;28;20024;-81
2021/11/13 00:19:52;;;;;;;30.00;14.90;;;2.60;99.90;;;;;;5041862;28;20394;-78
2021/11/13 00:22:18;;;;;;;34.95;17.15;;;2.60;99.90;;;;;;5033667;28;20494;-77
2021/11/13 00:24:43;;;;;;;31.75;14.63;;;2.60;99.90;;;;;;5032259;28;20030;-77
2021/11/13 00:27:09;;;;;;;30.20;15.00;;;3.10;99.90;;;;;;5032208;28;20112;-77
2021/11/13 00:29:35;;;;;;;33.05;14.63;;;2.60;99.90;;;;;;5031445;28;20056;-77
2021/11/13 00:32:01;;;;;;;31.13;15.40;;;2.60;99.90;;;;;;5032116;28;20079;-77
2021/11/13 00:34:27;;;;;;;31.58;14.85;;;2.60;99.90;;;;;;5031815;28;20026;-77
2021/11/13 00:36:53;;;;;;;33.05;15.13;;;2.60;99.90;;;;;;5014144;28;20022;-77
2021/11/13 00:39:19;;;;;;;25.77;14.02;;;2.70;99.90;;;;;;5031577;28;20410;-77
2021/11/13 00:41:45;;;;;;;29.98;15.13;;;2.70;99.90;;;;;;5032329;28;20096;-77
2021/11/13 00:44:11;;;;;;;29.67;15.25;;;2.80;99.90;;;;;;5032313;28;20477;-77
2021/11/13 00:46:37;;;;;;;26.52;14.48;;;2.70;99.90;;;;;;5032366;28;20116;-79
2021/11/13 00:49:05;;;;;;;27.30;15.30;;;2.70;99.90;;;;;;5034421;28;20025;-79
2021/11/13 00:51:32;;;;;;;27.88;15.00;;;2.80;99.90;;;;;;5031486;28;20041;-77
2021/11/13 00:54:00;;;;;;;31.98;15.68;;;2.80;99.90;;;;;;5032007;28;20093;-77
2021/11/13 00:56:25;;;;;;;29.95;15.75;;;2.80;99.90;;;;;;5031504;28;20501;-76
2021/11/13 00:58:51;;;;;;;35.63;16.27;;;2.80;99.90;;;;;;5014458;28;20037;-79
2021/11/13 01:01:18;;;;;;;29.70;15.27;;;2.90;99.90;;;;;;4997114;28;20033;-76
2021/11/13 01:03:43;;;;;;;31.27;16.17;;;2.90;99.90;;;;;;5012564;28;20057;-77
2021/11/13 01:06:09;;;;;;;34.00;16.27;;;2.90;99.90;;;;;;5011246;28;20472;-76
2021/11/13 01:08:35;;;;;;;33.88;17.58;;;2.90;99.90;;;;;;5053880;22;20048;-79
2021/11/13 01:11:01;;;;;;;29.27;15.77;;;2.90;99.90;;;;;;5036860;28;20488;-79
2021/11/13 01:13:27;;;;;;;30.88;15.77;;;2.80;99.90;;;;;;5036414;28;20033;-79
2021/11/13 01:15:53;;;;;;;33.60;16.90;;;3.00;99.90;;;;;;5038274;28;20032;-79
2021/11/13 01:18:19;;;;;;;35.83;16.45;;;3.00;99.90;;;;;;5023423;28;20431;-79
2021/11/13 01:20:45;;;;;;;34.35;15.82;;;2.60;99.90;;;;;;5020325;28;20025;-79
2021/11/13 01:23:11;;;;;;;30.38;15.48;;;3.00;99.90;;;;;;5038891;28;20030;-78
2021/11/13 01:25:36;;;;;;;31.27;16.08;;;2.90;99.90;;;;;;5020839;28;20029;-79
2021/11/13 01:28:02;;;;;;;31.73;15.52;;;2.90;99.90;;;;;;5004754;28;20107;-79
2021/11/13 01:30:28;;;;;;;29.20;14.57;;;3.90;99.90;;;;;;5038646;28;20029;-79
2021/11/13 01:32:54;;;;;;;31.13;14.60;;;3.10;99.90;;;;;;5037819;28;20440;-79
2021/11/13 01:35:22;;;;;;;30.20;15.13;;;2.80;99.90;;;;;;5019582;28;20030;-79
2021/11/13 01:37:48;;;;;;;32.05;15.18;;;4.10;99.90;;;;;;5019118;28;20018;-79
2021/11/13 01:40:16;;;;;;;32.38;15.80;;;2.80;99.90;;;;;;5020430;28;20555;-79
2021/11/13 01:42:43;;;;;;;30.98;15.35;;;2.80;99.90;;;;;;5004598;28;20029;-79
2021/11/13 01:45:10;;;;;;;35.03;16.58;;;2.80;99.90;;;;;;5021246;28;20057;-79
2021/11/13 01:47:38;;;;;;;35.65;17.13;;;2.90;99.90;;;;;;5020545;28;20033;-79
2021/11/13 01:50:18;;;;;;;29.92;15.93;;;2.90;99.90;;;;;;5039666;28;20481;-79
2021/11/13 01:52:45;;;;;;;29.50;16.00;;;4.20;99.90;;;;;;5021331;28;20485;-79
2021/11/13 01:55:11;;;;;;;32.80;16.58;;;2.80;99.90;;;;;;5038544;28;20397;-79
2021/11/13 01:57:45;;;;;;;30.55;15.23;;;2.90;99.90;;;;;;5021310;28;20469;-79
2021/11/13 02:00:15;;;;;;;28.98;14.45;;;4.40;99.90;;;;;;5041898;28;20018;-78
2021/11/13 02:02:41;;;;;;;27.15;13.50;;;3.00;99.90;;;;;;5029528;28;20033;-79
2021/11/13 02:05:07;;;;;;;32.28;15.48;;;3.10;99.90;;;;;;5046991;28;20017;-79
2021/11/13 02:07:32;;;;;;;27.17;14.40;;;3.00;99.90;;;;;;5042412;28;20026;-80
2021/11/13 02:09:58;;;;;;;29.13;14.88;;;2.90;99.90;;;;;;5002509;28;20055;-79
2021/11/13 02:12:23;;;;;;;32.80;15.05;;;2.90;99.90;;;;;;5002682;28;20033;-78
2021/11/13 02:14:49;;;;;;;29.02;15.30;;;2.90;99.90;;;;;;5036208;28;20022;-79
2021/11/13 02:17:15;;;;;;;29.52;15.10;;;3.00;99.90;;;;;;5018445;28;20018;-78
2021/11/13 02:19:40;;;;;;;27.88;14.00;;;2.80;99.90;;;;;;5018906;28;20090;-79
2021/11/13 02:22:06;;;;;;;25.98;13.82;;;2.60;99.90;;;;;;5040706;28;20025;-79
2021/11/13 02:24:32;;;;;;;27.83;14.13;;;2.80;99.90;;;;;;5007615;28;20029;-79
2021/11/13 02:26:58;;;;;;;33.30;15.00;;;3.00;99.90;;;;;;5015511;28;20104;-79
2021/11/13 02:29:23;;;;;;;30.50;14.70;;;3.10;99.90;;;;;;5036632;28;20406;-79
2021/11/13 02:31:49;;;;;;;32.70;15.00;;;3.00;99.90;;;;;;5036876;28;20115;-79
2021/11/13 02:34:15;;;;;;;28.50;14.45;;;4.10;99.90;;;;;;5036897;28;20029;-80
2021/11/13 02:36:42;;;;;;;29.55;15.00;;;3.10;99.90;;;;;;5019048;28;20036;-80
2021/11/13 02:39:10;;;;;;;27.27;13.98;;;3.90;99.90;;;;;;5037086;28;20021;-79
2021/11/13 02:41:36;;;;;;;25.42;14.32;;;3.10;99.90;;;;;;4983532;28;20038;-80
2021/11/13 02:44:04;;;;;;;31.23;15.10;;;3.10;99.90;;;;;;4999691;28;20030;-79
2021/11/13 02:46:29;;;;;;;26.27;14.45;;;3.10;99.90;;;;;;5020141;28;20064;-79
2021/11/13 02:48:55;;;;;;;30.65;15.23;;;3.20;99.90;;;;;;5018776;28;20033;-79
2021/11/13 02:51:21;;;;;;;26.83;14.48;;;3.10;99.90;;;;;;5018771;28;20490;-79
2021/11/13 02:53:52;;;;;;;25.90;14.57;;;3.10;99.90;;;;;;5037037;28;20021;-79
2021/11/13 02:56:18;;;;;;;27.55;14.25;;;3.30;99.90;;;;;;5037449;28;20478;-79
2021/11/13 02:58:44;;;;;;;28.15;14.75;;;3.10;99.90;;;;;;5018350;28;20026;-79
2021/11/13 03:01:21;;;;;;;31.35;15.32;;;3.00;99.90;;;;;;5018744;28;20036;-80
2021/11/13 03:03:50;;;;;;;26.58;13.93;;;3.10;99.90;;;;;;5036246;28;20112;-80
2021/11/13 03:06:16;;;;;;;25.73;14.15;;;3.10;99.90;;;;;;5017851;28;20022;-78
2021/11/13 03:08:44;;;;;;;21.63;13.20;;;3.10;99.90;;;;;;5025177;28;20037;-78
2021/11/13 03:11:13;;;;;;;27.88;14.65;;;4.50;99.90;;;;;;5029226;28;20021;-79
2021/11/13 03:13:41;;;;;;;28.23;15.18;;;3.10;99.90;;;;;;5036472;28;20033;-79
2021/11/13 03:16:09;;;;;;;27.80;14.63;;;3.10;99.90;;;;;;5001834;28;20026;-79
2021/11/13 03:18:35;;;;;;;29.25;14.85;;;3.10;99.90;;;;;;5036044;28;20022;-79
2021/11/13 03:21:05;;;;;;;27.15;15.32;;;3.70;99.90;;;;;;5018350;28;20132;-79
2021/11/13 03:23:32;;;;;;;29.33;13.95;;;2.90;99.90;;;;;;5018529;28;20022;-79
2021/11/13 03:26:05;;;;;;;26.27;14.57;;;3.10;99.90;;;;;;5035091;28;20500;-79
2021/11/13 03:28:35;;;;;;;26.38;14.52;;;4.90;99.90;;;;;;5035066;28;20124;-80
2021/11/13 03:31:01;;;;;;;25.38;14.32;;;3.70;99.90;;;;;;5019419;28;20049;-78
2021/11/13 03:33:29;;;;;;;25.90;14.57;;;4.00;99.90;;;;;;5020339;28;20040;-78
2021/11/13 03:35:54;;;;;;;29.33;15.55;;;3.10;99.90;;;;;;5035426;28;20025;-80
2021/11/13 03:38:20;;;;;;;28.73;15.25;;;3.00;99.90;;;;;;5010820;28;20029;-79
2021/11/13 03:40:48;;;;;;;23.55;13.25;;;3.10;99.90;;;;;;5048907;28;20551;-79
2021/11/13 03:43:14;;;;;;;22.48;14.15;;;3.80;99.90;;;;;;5021208;28;20175;-78
2021/11/13 03:45:42;;;;;;;21.77;14.05;;;3.10;99.90;;;;;;5017140;28;20029;-79
2021/11/13 03:48:08;;;;;;;24.90;13.68;;;3.00;99.90;;;;;;5034491;28;20029;-79
2021/11/13 03:50:34;;;;;;;25.60;14.80;;;3.10;99.90;;;;;;5002030;28;20039;-79
2021/11/13 03:52:59;;;;;;;26.73;13.45;;;3.10;99.90;;;;;;5028104;28;20057;-80
2021/11/13 03:55:25;;;;;;;21.33;13.20;;;3.10;99.90;;;;;;5014909;28;20029;-79
2021/11/13 03:57:52;;;;;;;22.38;13.80;;;3.90;99.90;;;;;;5022049;28;20034;-79
2021/11/13 04:00:18;;;;;;;28.40;15.18;;;4.60;99.90;;;;;;5035462;28;20075;-80
2021/11/13 04:02:46;;;;;;;23.60;13.35;;;3.00;99.90;;;;;;5039084;28;20027;-79
2021/11/13 04:05:12;;;;;;;21.05;13.05;;;3.30;99.90;;;;;;5030926;28;20044;-79
2021/11/13 04:07:38;;;;;;;24.15;13.68;;;3.10;99.90;;;;;;5046974;28;20052;-79
2021/11/13 04:10:06;;;;;;;23.38;13.18;;;3.10;99.90;;;;;;5040680;28;20470;-79
2021/11/13 04:12:33;;;;;;;20.58;12.07;;;3.10;99.90;;;;;;5001780;28;20036;-79
2021/11/13 04:14:59;;;;;;;21.48;12.30;;;3.30;99.90;;;;;;5016500;28;20037;-79
2021/11/13 04:17:25;;;;;;;23.77;13.52;;;3.10;99.90;;;;;;5017322;28;20450;-78
2021/11/13 04:19:52;;;;;;;18.73;10.95;;;3.00;99.90;;;;;;5034580;28;20073;-79
2021/11/13 04:22:18;;;;;;;20.05;11.23;;;3.10;99.90;;;;;;5034890;28;20088;-79
2021/11/13 04:24:45;;;;;;;19.88;11.57;;;3.80;99.90;;;;;;5017337;28;20044;-79
2021/11/13 04:27:11;;;;;;;19.02;11.35;;;3.00;99.90;;;;;;5034796;28;20033;-80
2021/11/13 04:29:36;;;;;;;20.48;11.15;;;3.00;99.90;;;;;;5017210;28;20035;-79
2021/11/13 04:32:02;;;;;;;18.88;10.43;;;3.10;99.90;;;;;;5015397;28;20068;-80
2021/11/13 04:34:39;;;;;;;18.08;11.45;;;2.80;99.90;;;;;;5034295;28;20390;-79
2021/11/13 04:37:13;;;;;;;21.05;10.65;;;3.10;99.90;;;;;;5017277;28;20049;-79
2021/11/13 04:39:39;;;;;;;18.45;10.48;;;3.00;99.90;;;;;;5002177;28;20048;-79
2021/11/13 04:42:05;;;;;;;17.58;10.90;;;3.00;99.90;;;;;;5017567;28;20486;-79
2021/11/13 04:44:31;;;;;;;16.83;10.38;;;3.20;99.90;;;;;;5034834;28;20037;-79
2021/11/13 04:46:56;;;;;;;14.98;9.43;;;4.40;99.90;;;;;;5017147;28;20029;-79
2021/11/13 04:49:22;;;;;;;15.80;10.40;;;3.00;99.90;;;;;;5000606;28;20414;-79
2021/11/13 04:51:48;;;;;;;15.82;9.63;;;2.90;99.90;;;;;;5002779;28;20088;-80
2021/11/13 04:54:13;;;;;;;20.23;10.88;;;2.80;99.90;;;;;;5016749;28;20053;-80
2021/11/13 04:56:39;;;;;;;18.63;10.68;;;2.90;99.90;;;;;;5016107;28;20026;-80
2021/11/13 04:59:06;;;;;;;16.70;9.85;;;3.00;99.90;;;;;;5019297;28;20048;-80
2021/11/13 05:01:31;;;;;;;18.48;10.10;;;3.50;99.90;;;;;;5018778;28;20034;-79
2021/11/13 05:03:57;;;;;;;13.32;8.50;;;2.90;99.90;;;;;;5037027;28;20108;-80
2021/11/13 05:06:23;;;;;;;15.88;9.15;;;2.90;99.90;;;;;;5001823;28;20493;-80
2021/11/13 05:08:49;;;;;;;14.68;9.85;;;3.00;99.90;;;;;;5036332;28;20241;-80
2021/11/13 05:11:14;;;;;;;14.13;8.70;;;3.60;99.90;;;;;;5036830;28;20026;-79
2021/11/13 05:13:40;;;;;;;13.10;8.38;;;2.70;99.90;;;;;;5036947;28;20021;-80
2021/11/13 05:16:06;;;;;;;14.20;8.27;;;2.90;99.90;;;;;;5018443;28;20444;-80
2021/11/13 05:18:31;;;;;;;12.23;7.97;;;2.80;99.90;;;;;;5018980;28;20053;-80
2021/11/13 05:20:57;;;;;;;13.43;8.55;;;2.90;99.90;;;;;;5002625;28;20116;-80
2021/11/13 05:23:23;;;;;;;16.17;8.82;;;2.90;99.90;;;;;;5019127;28;20057;-80
2021/11/13 05:25:48;;;;;;;12.82;7.93;;;2.80;99.90;;;;;;5035988;28;20033;-80
2021/11/13 05:28:14;;;;;;;11.60;7.78;;;2.90;99.90;;;;;;5018974;28;20172;-80
2021/11/13 05:30:40;;;;;;;12.00;8.23;;;3.00;99.90;;;;;;5021834;28;20030;-79
2021/11/13 05:33:06;;;;;;;11.52;7.95;;;2.90;99.90;;;;;;5037524;28;20029;-80
2021/11/13 05:35:31;;;;;;;11.30;7.30;;;3.00;99.90;;;;;;5002685;28;20049;-79
2021/11/13 05:37:57;;;;;;;15.30;8.23;;;2.90;99.90;;;;;;5036835;28;20036;-80
2021/11/13 05:40:23;;;;;;;12.68;7.97;;;3.00;99.90;;;;;;4987139;28;20026;-80
2021/11/13 05:42:49;;;;;;;10.80;7.60;;;2.90;99.90;;;;;;5037302;28;20026;-80
2021/11/13 05:45:15;;;;;;;12.70;7.57;;;3.00;99.90;;;;;;5022652;28;20033;-80
2021/11/13 05:47:42;;;;;;;12.10;7.97;;;3.10;99.90;;;;;;5044592;28;20520;-79
2021/11/13 05:50:12;;;;;;;12.60;7.80;;;3.00;99.90;;;;;;5046008;28;20102;-80
2021/11/13 05:52:42;;;;;;;11.05;7.50;;;3.10;99.90;;;;;;5019942;28;20097;-80
2021/11/13 05:55:11;;;;;;;11.05;7.60;;;3.10;99.90;;;;;;5002174;28;20025;-80
2021/11/13 05:57:37;;;;;;;12.13;7.25;;;3.00;99.90;;;;;;5018655;28;20478;-80
2021/11/13 06:00:08;;;;;;;12.80;7.68;;;3.10;99.90;;;;;;5035850;28;20125;-79
2021/11/13 06:02:33;;;;;;;11.65;8.73;;;3.10;99.90;;;;;;5022920;28;20041;-80
2021/11/13 06:04:59;;;;;;;13.10;8.48;;;3.20;99.90;;;;;;5040297;28;20030;-80
2021/11/13 06:07:24;;;;;;;14.02;8.55;;;3.20;99.90;;;;;;5021851;28;20115;-80
2021/11/13 06:09:50;;;;;;;14.60;9.18;;;3.20;99.90;;;;;;5005685;28;20041;-80
2021/11/13 06:12:16;;;;;;;13.80;9.07;;;3.20;99.90;;;;;;5040852;28;20021;-80
2021/11/13 06:14:41;;;;;;;14.40;9.73;;;3.20;99.90;;;;;;5027610;28;20022;-80
2021/11/13 06:17:07;;;;;;;13.57;9.18;;;3.20;99.90;;;;;;5027868;28;20036;-80
2021/11/13 06:19:33;;;;;;;11.88;8.20;;;4.10;99.90;;;;;;5048950;28;20033;-79
2021/11/13 06:21:58;;;;;;;13.88;9.15;;;3.20;99.90;;;;;;5031758;28;20033;-79
2021/11/13 06:24:24;;;;;;;14.48;9.15;;;3.10;99.90;;;;;;5030286;28;20034;-79
2021/11/13 06:26:50;;;;;;;14.05;9.70;;;3.10;99.90;;;;;;5004537;28;20029;-80
2021/11/13 06:29:15;;;;;;;15.13;9.18;;;3.20;99.90;;;;;;5014172;28;20091;-78
2021/11/13 06:31:41;;;;;;;13.77;9.20;;;3.40;99.90;;;;;;5024013;28;20041;-79
2021/11/13 06:34:06;;;;;;;14.77;9.18;;;3.20;99.90;;;;;;5007653;28;20026;-79
2021/11/13 06:36:32;;;;;;;14.98;10.00;;;5.20;99.90;;;;;;5052237;28;20029;-80
2021/11/13 06:38:58;;;;;;;15.07;9.98;;;3.30;99.90;;;;;;5035544;28;20033;-80
2021/11/13 06:41:29;;;;;;;15.82;9.98;;;3.60;99.90;;;;;;5031214;28;20120;-78
2021/11/13 06:43:55;;;;;;;15.95;10.32;;;3.40;99.90;;;;;;5017295;28;20033;-80
2021/11/13 06:46:21;;;;;;;19.33;11.77;;;3.20;99.90;;;;;;5052104;28;20033;-78
2021/11/13 06:48:46;;;;;;;16.85;11.10;;;3.40;99.90;;;;;;5036620;28;20029;-79
2021/11/13 06:51:12;;;;;;;19.15;10.55;;;3.00;99.90;;;;;;5021118;28;20037;-79
2021/11/13 06:53:38;;;;;;;16.25;10.48;;;4.50;99.90;;;;;;5013528;28;20080;-79
2021/11/13 06:56:04;;;;;;;15.15;10.05;;;3.50;99.90;;;;;;5027718;28;20033;-80
2021/11/13 06:58:29;;;;;;;16.92;10.73;;;3.40;99.90;;;;;;5047570;28;20026;-81
2021/11/13 07:00:55;;;;;;;18.50;11.02;;;3.40;99.90;;;;;;5009989;28;20397;-80
2021/11/13 07:03:21;;;;;;;19.30;11.02;;;3.50;99.90;;;;;;5010443;28;20031;-80
2021/11/13 07:05:47;;;;;;;16.92;11.45;;;3.50;99.90;;;;;;5009580;28;20486;-80
2021/11/13 07:08:13;;;;;;;17.20;11.68;;;3.80;99.90;;;;;;5043534;22;20030;-77
2021/11/13 07:10:40;;;;;;;19.05;11.52;;;3.60;99.90;;;;;;5093198;28;20453;-76
2021/11/13 07:13:05;;;;;;;17.02;11.82;;;3.70;99.90;;;;;;5092979;28;20028;-76
2021/11/13 07:15:31;;;;;;;20.08;11.18;;;3.70;99.90;;;;;;5093185;28;20030;-79
2021/11/13 07:17:59;;;;;;;19.52;11.98;;;3.70;99.90;;;;;;5093638;28;20391;-77
2021/11/13 07:20:25;;;;;;;20.58;12.00;;;5.10;99.90;;;;;;5076277;28;20029;-78
2021/11/13 07:22:51;;;;;;;19.90;11.93;;;3.70;99.90;;;;;;5073202;28;20377;-77
2021/11/13 07:25:16;;;;;;;19.50;11.95;;;3.90;99.90;;;;;;5072964;28;20054;-75
2021/11/13 07:27:46;;;;;;;19.25;11.52;;;4.00;99.90;;;;;;5073397;28;20028;-75
2021/11/13 07:30:15;;;;;;;17.77;11.10;;;4.00;99.90;;;;;;5075876;28;20032;-76
2021/11/13 07:32:41;;;;;;;17.98;11.35;;;4.10;99.90;;;;;;5072905;28;20024;-75
2021/11/13 07:35:07;;;;;;;17.90;11.50;;;4.20;99.90;;;;;;5071693;28;20086;-77
2021/11/13 07:37:33;;;;;;;16.08;10.80;;;4.30;99.90;;;;;;5071374;28;20029;-76
2021/11/13 07:39:59;;;;;;;17.77;10.25;;;4.30;99.90;;;;;;5072902;28;20027;-75
2021/11/13 07:42:24;;;;;;;19.02;11.45;;;4.30;99.90;;;;;;5073037;28;20439;-77
2021/11/13 07:44:50;;;;;;;15.48;10.57;;;4.60;99.90;;;;;;5072599;28;20033;-77
2021/11/13 07:47:16;;;;;;;17.65;10.77;;;4.60;99.90;;;;;;5085258;28;20119;-77
2021/11/13 07:49:42;;;;;;;17.10;10.50;;;4.70;99.90;;;;;;5079450;28;20039;-78
2021/11/13 07:52:08;;;;;;;15.43;10.68;;;6.00;99.90;;;;;;5072713;28;20500;-77
2021/11/13 07:54:34;;;;;;;15.32;10.52;;;5.00;99.90;;;;;;5072356;28;20671;-77
2021/11/13 07:57:00;;;;;;;17.02;10.82;;;5.10;99.90;;;;;;5075169;28;20035;-78
2021/11/13 07:59:26;;;;;;;15.43;10.23;;;5.30;99.90;;;;;;5092191;28;20020;-77
2021/11/13 08:01:52;;;;;;;15.85;10.02;;;5.40;99.90;;;;;;5076556;28;20123;-79
2021/11/13 08:04:17;;;;;;;18.67;11.85;;;5.30;99.90;;;;;;5076144;28;20031;-77
2021/11/13 08:06:43;;;;;;;16.90;11.30;;;5.40;99.90;;;;;;5094122;28;20036;-77
2021/11/13 08:09:09;;;;;;;17.63;12.25;;;6.50;99.90;;;;;;5084570;28;20059;-77
2021/11/13 08:11:34;;;;;;;24.30;14.45;;;5.60;99.90;;;;;;5072724;28;20029;-76
2021/11/13 08:14:00;;;;;;;20.80;13.60;;;5.40;99.90;;;;;;5069273;28;20121;-76
2021/11/13 08:16:26;;;;;;;20.88;14.20;;;5.40;99.90;;;;;;5071250;28;20025;-77
2021/11/13 08:18:51;;;;;;;23.00;14.05;;;5.30;99.90;;;;;;5072249;28;20373;-77
2021/11/13 08:21:17;;;;;;;18.85;13.52;;;5.30;99.90;;;;;;5071657;28;20036;-77
2021/11/13 08:23:43;;;;;;;22.73;13.95;;;5.30;99.90;;;;;;5071509;28;20028;-77
2021/11/13 08:26:09;;;;;;;19.85;12.98;;;5.40;99.90;;;;;;5070825;28;20447;-77
2021/11/13 08:28:36;;;;;;;18.80;12.13;;;5.60;99.90;;;;;;5080063;28;20048;-77
2021/11/13 08:31:02;;;;;;;22.55;13.23;;;5.70;99.90;;;;;;5092262;28;20459;-77
2021/11/13 08:33:28;;;;;;;19.52;12.35;;;6.00;99.90;;;;;;5092251;28;20044;-77
2021/11/13 08:35:55;;;;;;;17.02;11.63;;;5.70;99.90;;;;;;5090285;28;20051;-77
2021/11/13 08:38:22;;;;;;;16.80;11.38;;;5.80;99.90;;;;;;5071456;28;20028;-77
2021/11/13 08:40:50;;;;;;;13.90;9.35;;;5.90;99.90;;;;;;5088528;28;20511;-77
2021/11/13 08:43:17;;;;;;;15.57;8.27;;;5.80;99.90;;;;;;5091396;28;20036;-77
2021/11/13 08:45:43;;;;;;;12.98;9.45;;;5.70;99.90;;;;;;5091584;28;20039;-77
2021/11/13 08:48:10;;;;;;;13.32;9.65;;;5.80;99.90;;;;;;5076341;28;20033;-77
2021/11/13 08:50:36;;;;;;;12.93;9.30;;;6.00;99.90;;;;;;5086327;28;20025;-77
2021/11/13 08:53:03;;;;;;;13.13;9.10;;;;;;;;;;5084529;28;20427;-77
2021/11/13 08:55:30;;;;;;;14.13;9.95;;;;;;;;;;5071242;28;20035;-77
2021/11/13 08:57:57;;;;;;;14.10;10.25;;;5.80;99.90;;;;;;5076234;28;20028;-77
2021/11/13 09:00:38;;;;;;;12.25;8.95;;;6.10;99.90;;;;;;5071720;28;20523;-77
2021/11/13 09:03:07;;;;;;;13.38;9.93;;;6.40;99.90;;;;;;5071520;28;20036;-77
2021/11/13 09:05:33;;;;;;;14.88;10.15;;;6.50;99.90;;;;;;5070717;28;20472;-77
2021/11/13 09:08:00;;;;;;;15.70;9.45;;;6.60;99.90;;;;;;5071532;28;20253;-77
2021/11/13 09:10:26;;;;;;;15.73;10.73;;;6.70;99.90;;;;;;5074547;28;20500;-77
2021/11/13 09:12:52;;;;;;;12.35;9.35;;;6.80;99.90;;;;;;5071554;28;20183;-77
2021/11/13 09:15:24;;;;;;;15.00;9.68;;;6.90;99.90;;;;;;5071040;28;20045;-77
2021/11/13 09:17:50;;;;;;;16.63;10.33;;;7.00;99.90;;;;;;5071606;28;20125;-77
2021/11/13 09:20:15;;;;;;;15.18;9.50;;;6.90;99.90;;;;;;5089449;28;20063;-77
2021/11/13 09:22:41;;;;;;;14.30;9.48;;;7.00;99.90;;;;;;5086681;28;20428;-77
2021/11/13 09:25:10;;;;;;;12.05;9.05;;;7.20;99.90;;;;;;5070999;28;20056;-77
2021/11/13 09:27:38;;;;;;;14.77;9.77;;;7.40;99.90;;;;;;5087578;28;20039;-77
2021/11/13 09:30:06;;;;;;;13.98;10.25;;;7.60;99.90;;;;;;5081200;28;20029;-77
2021/11/13 09:32:32;;;;;;;16.48;9.90;;;7.80;99.90;;;;;;5073831;28;20484;-77
2021/11/13 09:34:58;;;;;;;13.20;9.00;;;8.10;99.90;;;;;;5070854;28;20021;-77
2021/11/13 09:37:23;;;;;;;12.77;8.85;;;8.00;99.90;;;;;;5068307;28;20032;-77
2021/11/13 09:39:49;;;;;;;13.32;9.85;;;8.00;99.90;;;;;;5068781;28;20028;-77
2021/11/13 09:42:15;;;;;;;16.10;10.65;;;7.90;99.90;;;;;;5075327;28;20432;-77
2021/11/13 09:44:41;;;;;;;15.23;10.98;;;7.80;99.90;;;;;;5074701;28;20040;-77
2021/11/13 09:47:07;;;;;;;16.85;11.13;;;7.90;99.90;;;;;;5075155;28;20032;-77
2021/11/13 09:49:33;;;;;;;16.85;10.40;;;7.70;99.90;;;;;;5089926;28;20111;-77
2021/11/13 09:52:00;;;;;;;15.13;11.07;;;8.30;99.90;;;;;;5095335;28;20118;-77
2021/11/13 09:54:27;;;;;;;18.95;12.07;;;7.40;99.90;;;;;;5075061;28;20455;-77
2021/11/13 09:56:53;;;;;;;20.55;12.68;;;8.30;99.90;;;;;;5074907;28;20024;-77
2021/11/13 09:59:18;;;;;;;19.08;12.82;;;7.20;99.90;;;;;;5079790;28;20438;-77
2021/11/13 10:01:44;;;;;;;19.10;12.25;;;7.20;99.90;;;;;;5074809;28;20028;-76
2021/11/13 10:04:10;;;;;;;20.00;12.77;;;7.00;99.90;;;;;;5074911;28;20143;-77
2021/11/13 10:06:35;;;;;;;19.52;12.65;;;8.20;99.90;;;;;;5076005;28;20028;-76
2021/11/13 10:09:01;;;;;;;18.35;12.52;;;7.00;99.90;;;;;;5077008;28;20484;-76
2021/11/13 10:11:28;;;;;;;17.92;12.00;;;7.00;99.90;;;;;;5056225;28;20036;-77
2021/11/13 10:13:59;;;;;;;18.75;13.05;;;7.50;99.90;;;;;;5074369;28;20024;-77
2021/11/13 10:16:35;;;;;;;18.70;12.73;;;7.30;99.90;;;;;;5074298;28;20029;-77
2021/11/13 10:19:27;;;;;;;21.15;13.70;;;7.20;99.90;;;;;;5074280;28;20504;-77
2021/11/13 10:21:56;;;;;;;20.80;14.53;;;7.30;99.90;;;;;;5057953;28;20035;-77
2021/11/13 10:24:29;;;;;;;22.50;12.82;;;7.40;99.90;;;;;;5057316;28;20408;-76
2021/11/13 10:26:58;;;;;;;19.88;13.65;;;7.30;99.90;;;;;;5081410;28;20024;-76
2021/11/13 10:29:25;;;;;;;21.63;12.85;;;6.80;99.90;;;;;;5075518;28;20512;-77
2021/11/13 10:31:54;;;;;;;19.30;12.82;;;7.30;99.90;;;;;;5073355;28;20485;-77
2021/11/13 10:34:27;;;;;;;20.27;13.57;;;7.20;99.90;;;;;;5073953;28;20086;-77
2021/11/13 10:36:59;;;;;;;19.20;12.85;;;7.10;99.90;;;;;;5073972;28;20032;-77
2021/11/13 10:39:33;;;;;;;17.08;12.13;;;7.90;99.90;;;;;;5074110;28;20032;-79
2021/11/13 10:42:04;;;;;;;20.38;12.23;;;7.10;99.90;;;;;;5074973;28;20035;-78
2021/11/13 10:44:35;;;;;;;17.45;12.13;;;7.30;99.90;;;;;;5076369;28;20036;-78
2021/11/13 10:47:13;;;;;;;18.48;12.77;;;7.30;99.90;;;;;;5080385;28;20036;-83
2021/11/13 10:49:40;;;;;;;16.73;12.18;;;7.20;99.90;;;;;;5079144;28;20031;-81
2021/11/13 10:52:07;;;;;;;17.60;12.13;;;7.20;99.90;;;;;;5100992;28;20121;-80
2021/11/13 10:54:34;;;;;;;18.77;12.88;;;7.20;99.90;;;;;;5060925;28;20021;-83
2021/11/13 10:57:04;;;;;;;20.27;13.25;;;7.20;99.90;;;;;;5054826;28;20037;-78
2021/11/13 10:59:33;;;;;;;19.52;12.70;;;7.40;99.90;;;;;;5075328;28;20055;-77
2021/11/13 11:02:05;;;;;;;18.45;12.13;;;7.60;99.90;;;;;;5094055;28;20028;-77
2021/11/13 11:04:34;;;;;;;16.38;10.85;;;7.80;99.90;;;;;;5093596;28;20395;-78
2021/11/13 11:07:09;;;;;;;16.08;11.27;;;8.10;99.90;;;;;;5081680;28;20403;-77
2021/11/13 11:09:40;;;;;;;14.50;11.10;;;8.10;99.90;;;;;;5089251;28;20032;-77
2021/11/13 11:12:18;;;;;;;14.90;10.73;;;10.20;99.90;;;;;;5093864;28;20400;-77
2021/11/13 11:14:49;;;;;;;16.48;11.25;;;8.20;99.90;;;;;;5093299;28;20020;-77
2021/11/13 11:17:24;;;;;;;14.75;10.80;;;8.90;99.90;;;;;;5093137;28;20022;-77
2021/11/13 11:19:52;;;;;;;17.65;10.73;;;8.40;99.90;;;;;;5093065;28;20041;-78
2021/11/13 11:22:21;;;;;;;17.40;11.07;;;9.50;99.90;;;;;;5092372;28;20099;-77
2021/11/13 11:24:58;;;;;;;16.83;11.80;;;8.40;99.90;;;;;;5074191;28;20031;-77
2021/11/13 11:27:25;;;;;;;15.25;11.07;;;8.60;99.90;;;;;;5075262;28;20437;-82
2021/11/13 11:30:08;;;;;;;16.38;10.95;;;8.70;99.90;;;;;;5076084;28;20028;-81
2021/11/13 11:32:40;;;;;;;;;;;9.00;99.90;;;;;;5076108;28;20501;-80
2021/11/13 11:35:14;;;;;;;14.30;10.18;;;9.30;99.90;;;;;;5073902;28;19905;-78
2021/11/13 11:37:51;;;;;;;14.75;9.52;;;9.40;99.90;;;;;;5073429;28;20551;-79
2021/11/13 11:40:25;;;;;;;14.07;9.57;;;9.70;99.90;;;;;;5091319;28;20369;-78
2021/11/13 11:42:52;;;;;;;13.90;8.35;;;9.80;99.90;;;;;;5096238;28;20052;-80
2021/11/13 11:45:20;;;;;;;13.00;9.30;;;11.40;99.90;;;;;;5093526;28;20058;-78
2021/11/13 11:47:50;;;;;;;12.95;8.52;;;9.90;99.90;;;;;;5092876;28;20039;-77
2021/11/13 11:50:17;;;;;;;13.57;8.82;;;10.20;99.90;;;;;;5072148;28;20039;-77
2021/11/13 11:52:45;;;;;;;12.52;7.78;;;9.80;99.90;;;;;;5072457;28;20036;-76
2021/11/13 11:55:13;;;;;;;13.32;8.23;;;10.80;99.90;;;;;;5072157;28;20029;-76
2021/11/13 11:57:44;;;;;;;10.98;7.65;;;10.60;99.90;;;;;;5073191;28;20024;-76
2021/11/13 12:00:13;;;;;;;13.88;8.65;;;11.20;99.90;;;;;;5090336;28;20024;-76
2021/11/13 12:02:40;;;;;;;10.80;7.85;;;9.80;99.90;;;;;;5093662;28;20028;-78
2021/11/13 12:05:10;;;;;;;11.38;7.75;;;9.80;99.90;;;;;;5092534;28;20032;-76
2021/11/13 12:07:36;;;;;;;11.13;7.95;;;9.80;99.90;;;;;;5073952;28;20128;-76
2021/11/13 12:10:20;;;;;;;10.02;7.60;;;10.40;99.90;;;;;;5042460;28;20033;-76
2021/11/13 12:13:12;;;;;;;11.80;8.73;;;9.70;99.90;;;;;;5084424;28;20031;-77
2021/11/13 12:15:50;;;;;;;11.40;7.93;;;9.50;99.90;;;;;;5052006;28;20505;-77
2021/11/13 12:18:24;;;;;;;11.98;8.40;;;9.50;99.90;;;;;;5065362;28;20115;-77
2021/11/13 12:21:01;;;;;;;12.50;8.63;;;9.50;99.90;;;;;;5094015;28;20020;-79
2021/11/13 12:23:50;;;;;;;13.07;8.05;;;9.40;99.90;;;;;;5083295;28;20021;-78
2021/11/13 12:26:33;;;;;;;11.35;8.00;;;11.00;99.90;;;;;;5073397;28;20473;-79
2021/11/13 12:29:00;;;;;;;;;;;9.70;99.90;;;;;;5074500;28;20028;-78
2021/11/13 12:31:38;;;;;;;13.13;8.52;;;9.80;99.90;;;;;;5094607;28;19908;-79
2021/11/13 12:34:05;;;;;;;12.63;8.27;;;9.70;99.90;;;;;;5078179;28;20432;-78
2021/11/13 12:36:48;;;;;;;12.60;8.43;;;11.10;99.90;;;;;;5088569;28;20085;-78
2021/11/13 12:39:16;;;;;;;15.70;8.07;;;9.90;99.90;;;;;;5075298;28;20385;-79
2021/11/13 12:41:49;;;;;;;13.43;7.93;;;9.80;99.90;;;;;;5072694;28;20058;-79